createdAt,value
2022-12-06T00:01:24.577Z,12.45
2022-12-06T00:03:57.128Z,13.18
2022-12-06T00:06:27.733Z,13.32
2022-12-06T00:08:55.956Z,13.40
2022-12-06T00:11:25.248Z,13.65
2022-12-06T00:13:57.588Z,14.93
2022-12-06T00:16:25.486Z,15.02
2022-12-06T00:18:53.374Z,15.32
2022-12-06T00:21:29.549Z,14.70
2022-12-06T00:23:59.877Z,14.68
2022-12-06T00:26:27.658Z,14.15
2022-12-06T00:28:56.536Z,15.18
2022-12-06T00:31:24.933Z,15.45
2022-12-06T00:33:52.402Z,14.27
2022-12-06T00:36:24.525Z,15.05
2022-12-06T00:38:52.059Z,15.48
2022-12-06T00:41:23.991Z,15.90
2022-12-06T00:43:52.049Z,16.70
2022-12-06T00:46:21.314Z,17.40
2022-12-06T00:48:49.198Z,16.45
2022-12-06T00:51:17.609Z,16.75
2022-12-06T00:53:45.166Z,15.27
2022-12-06T00:56:12.231Z,17.08
2022-12-06T00:58:39.280Z,16.20
2022-12-06T01:01:13.980Z,16.27
2022-12-06T01:03:41.424Z,16.73
2022-12-06T01:06:11.320Z,17.45
2022-12-06T01:08:39.292Z,18.27
2022-12-06T01:11:07.680Z,18.48
2022-12-06T01:13:35.014Z,17.77
2022-12-06T01:16:09.898Z,18.15
2022-12-06T01:18:37.122Z,19.40
2022-12-06T01:21:11.784Z,19.50
2022-12-06T01:23:39.204Z,18.73
2022-12-06T01:26:07.299Z,18.00
2022-12-06T01:28:34.629Z,17.60
2022-12-06T01:31:07.269Z,16.23
2022-12-06T01:33:34.425Z,17.80
2022-12-06T01:36:01.331Z,15.25
2022-12-06T01:38:28.190Z,15.32
2022-12-06T01:40:55.339Z,15.60
2022-12-06T01:43:44.005Z,14.57
2022-12-06T01:46:13.738Z,17.25
2022-12-06T01:48:41.731Z,18.85
2022-12-06T01:51:11.679Z,18.92
2022-12-06T01:53:40.320Z,19.73
2022-12-06T01:56:07.961Z,20.13
2022-12-06T01:58:40.488Z,19.52
2022-12-06T02:01:09.500Z,20.10
2022-12-06T02:03:37.512Z,20.48
2022-12-06T02:06:06.665Z,19.98
2022-12-06T02:08:34.367Z,19.88
2022-12-06T02:11:03.550Z,19.95
2022-12-06T02:13:32.322Z,19.50
2022-12-06T02:16:13.919Z,18.55
2022-12-06T02:19:13.633Z,17.75
2022-12-06T02:21:54.065Z,21.30
2022-12-06T02:24:43.971Z,21.65
2022-12-06T02:27:52.493Z,22.02
2022-12-06T02:30:45.253Z,19.83
2022-12-06T02:33:34.651Z,20.70
2022-12-06T02:36:05.348Z,18.65
2022-12-06T02:38:48.632Z,17.75
2022-12-06T02:41:32.096Z,17.13
2022-12-06T02:44:03.562Z,16.50
2022-12-06T02:46:34.808Z,16.55
2022-12-06T02:49:04.555Z,15.27
2022-12-06T02:51:34.871Z,16.73
2022-12-06T02:54:05.274Z,16.65
2022-12-06T02:56:33.553Z,16.83
2022-12-06T02:59:01.139Z,15.50
2022-12-06T03:01:32.060Z,16.95
2022-12-06T03:04:17.847Z,15.73
2022-12-06T03:07:05.877Z,15.43
2022-12-06T03:10:08.256Z,15.35
2022-12-06T03:12:35.171Z,16.33
2022-12-06T03:15:34.200Z,17.23
2022-12-06T03:18:07.061Z,15.43
2022-12-06T03:20:43.035Z,15.45
2022-12-06T03:23:18.755Z,14.80
2022-12-06T03:25:48.223Z,15.20
2022-12-06T03:28:16.774Z,14.90
2022-12-06T03:30:50.310Z,15.55
2022-12-06T03:33:22.152Z,14.82
2022-12-06T03:35:52.314Z,15.10
2022-12-06T03:38:28.015Z,15.65
2022-12-06T03:41:00.031Z,15.60
2022-12-06T03:43:27.128Z,16.05
2022-12-06T03:46:21.802Z,15.88
2022-12-06T03:49:01.606Z,16.15
2022-12-06T03:51:34.465Z,16.17
2022-12-06T03:54:04.778Z,15.55
2022-12-06T03:56:32.869Z,16.75
2022-12-06T03:58:59.845Z,16.90
2022-12-06T04:01:26.870Z,15.70
2022-12-06T04:03:53.727Z,16.35
2022-12-06T04:06:20.629Z,16.20
2022-12-06T04:08:47.446Z,15.18
2022-12-06T04:11:14.308Z,15.40
2022-12-06T04:13:41.700Z,15.27
2022-12-06T04:16:29.288Z,15.55
2022-12-06T04:18:56.265Z,14.93
2022-12-06T04:21:31.937Z,15.20
2022-12-06T04:23:59.912Z,14.63
2022-12-06T04:26:27.127Z,15.45
2022-12-06T04:29:12.637Z,14.98
2022-12-06T04:31:59.504Z,14.88
2022-12-06T04:34:45.011Z,15.05
2022-12-06T04:37:30.685Z,13.30
2022-12-06T04:39:57.726Z,13.75
2022-12-06T04:42:43.508Z,14.15
2022-12-06T04:45:10.634Z,13.80
2022-12-06T04:47:37.540Z,13.65
2022-12-06T04:50:04.853Z,12.98
2022-12-06T04:52:35.614Z,13.23
2022-12-06T04:55:04.028Z,11.90
2022-12-06T04:57:31.093Z,11.45
2022-12-06T04:59:58.446Z,11.88
2022-12-06T05:02:25.558Z,12.52
2022-12-06T05:04:52.892Z,11.10
2022-12-06T05:07:19.793Z,11.70
2022-12-06T05:09:46.617Z,12.38
2022-12-06T05:12:13.437Z,11.45
2022-12-06T05:14:40.273Z,11.40
2022-12-06T05:17:07.303Z,10.82
2022-12-06T05:19:34.156Z,11.30
2022-12-06T05:22:00.958Z,11.90
2022-12-06T05:24:27.775Z,11.95
2022-12-06T05:26:54.608Z,13.07
2022-12-06T05:29:21.397Z,12.07
2022-12-06T05:31:48.627Z,13.45
2022-12-06T05:34:15.542Z,14.52
2022-12-06T05:36:45.451Z,15.10
2022-12-06T05:39:12.474Z,15.75
2022-12-06T05:41:39.261Z,14.50
2022-12-06T05:44:06.162Z,15.65
2022-12-06T05:46:32.961Z,15.60
2022-12-06T05:48:59.757Z,16.70
2022-12-06T05:51:26.639Z,15.63
2022-12-06T05:53:53.423Z,15.85
2022-12-06T05:56:20.494Z,16.83
2022-12-06T05:58:47.264Z,17.77
2022-12-06T06:01:14.064Z,16.95
2022-12-06T06:03:46.960Z,17.95
2022-12-06T06:06:14.768Z,15.77
2022-12-06T06:08:41.675Z,17.80
2022-12-06T06:11:08.845Z,17.98
2022-12-06T06:13:35.638Z,17.13
2022-12-06T06:16:02.446Z,17.90
2022-12-06T06:18:29.397Z,18.52
2022-12-06T06:20:59.264Z,16.65
2022-12-06T06:23:27.902Z,17.60
2022-12-06T06:25:54.923Z,17.38
2022-12-06T06:28:22.351Z,18.33
2022-12-06T06:30:49.424Z,16.80
2022-12-06T06:33:16.351Z,18.13
2022-12-06T06:35:43.490Z,21.65
2022-12-06T06:38:10.580Z,17.05
2022-12-06T06:40:37.335Z,18.15
2022-12-06T06:43:20.545Z,15.93
2022-12-06T06:46:13.841Z,17.08
2022-12-06T06:48:40.903Z,17.25
2022-12-06T06:51:13.392Z,15.82
2022-12-06T06:53:43.662Z,15.88
2022-12-06T06:56:10.555Z,14.75
2022-12-06T06:58:37.658Z,15.80
2022-12-06T07:01:06.408Z,15.13
2022-12-06T07:03:34.096Z,16.65
2022-12-06T07:06:10.517Z,17.02
2022-12-06T07:08:39.679Z,18.80
2022-12-06T07:11:06.554Z,17.73
2022-12-06T07:13:33.790Z,17.58
2022-12-06T07:16:04.258Z,16.23
2022-12-06T07:18:31.104Z,17.85
2022-12-06T07:21:01.834Z,17.42
2022-12-06T07:23:29.033Z,17.73
2022-12-06T07:26:06.555Z,19.27
2022-12-06T07:28:36.749Z,18.05
2022-12-06T07:31:11.948Z,17.05
2022-12-06T07:33:39.940Z,18.55
2022-12-06T07:36:12.617Z,17.92
2022-12-06T07:38:40.154Z,16.13
2022-12-06T07:41:28.499Z,16.55
2022-12-06T07:44:14.994Z,16.98
2022-12-06T07:46:42.065Z,16.33
2022-12-06T07:49:09.202Z,16.60
2022-12-06T07:51:36.040Z,16.13
2022-12-06T07:54:03.861Z,17.10
2022-12-06T07:56:30.672Z,16.13
2022-12-06T07:58:57.561Z,14.73
2022-12-06T08:01:24.611Z,14.10
2022-12-06T08:03:51.497Z,13.32
2022-12-06T08:06:18.280Z,14.45
2022-12-06T08:08:45.118Z,14.65
2022-12-06T08:11:11.899Z,12.55
2022-12-06T08:13:38.859Z,12.43
2022-12-06T08:16:07.448Z,12.20
2022-12-06T08:18:34.301Z,13.25
2022-12-06T08:21:01.745Z,13.52
2022-12-06T08:23:33.918Z,14.63
2022-12-06T08:26:09.724Z,11.38
2022-12-06T08:28:37.625Z,11.48
2022-12-06T08:31:10.054Z,11.80
2022-12-06T08:33:37.305Z,10.30
2022-12-06T08:36:12.232Z,10.77
2022-12-06T08:38:39.457Z,10.57
2022-12-06T08:41:27.550Z,11.38
2022-12-06T08:43:55.554Z,11.40
2022-12-06T08:46:22.740Z,14.75
2022-12-06T08:48:50.336Z,11.75
2022-12-06T08:51:17.746Z,11.00
2022-12-06T08:53:44.668Z,11.38
2022-12-06T08:56:11.922Z,8.77
2022-12-06T08:58:38.712Z,7.97
2022-12-06T09:01:20.525Z,8.15
2022-12-06T09:03:48.016Z,9.68
2022-12-06T09:06:15.533Z,8.82
2022-12-06T09:08:42.421Z,9.35
2022-12-06T09:11:10.078Z,9.30
2022-12-06T09:13:38.038Z,9.52
2022-12-06T09:16:11.572Z,9.65
2022-12-06T09:18:38.626Z,9.43
2022-12-06T09:21:17.476Z,10.50
2022-12-06T09:23:45.195Z,10.43
2022-12-06T09:26:12.161Z,10.00
2022-12-06T09:28:40.895Z,8.63
2022-12-06T09:31:08.938Z,9.10
2022-12-06T09:33:36.519Z,8.32
2022-12-06T09:36:10.865Z,9.07
2022-12-06T09:38:40.312Z,8.68
2022-12-06T09:41:38.700Z,9.15
2022-12-06T09:44:11.680Z,8.82
2022-12-06T09:47:02.104Z,10.48
2022-12-06T09:49:39.807Z,10.48
2022-12-06T09:52:27.792Z,9.80
2022-12-06T09:55:27.172Z,10.27
2022-12-06T09:58:20.003Z,12.43
2022-12-06T10:01:03.008Z,11.18
2022-12-06T10:03:50.741Z,12.63
2022-12-06T10:06:20.464Z,12.38
2022-12-06T10:08:50.506Z,12.35
2022-12-06T10:11:55.023Z,11.55
2022-12-06T10:14:48.920Z,12.30
2022-12-06T10:17:34.527Z,12.73
2022-12-06T10:20:38.434Z,13.20
2022-12-06T10:23:13.172Z,11.60
2022-12-06T10:25:46.147Z,9.85
2022-12-06T10:28:19.877Z,9.55
2022-12-06T10:30:56.387Z,7.43
2022-12-06T10:33:52.372Z,8.65
2022-12-06T10:36:40.930Z,9.20
2022-12-06T10:39:59.060Z,8.63
2022-12-06T10:42:40.689Z,8.07
2022-12-06T10:45:49.955Z,8.82
2022-12-06T10:48:41.574Z,7.63
2022-12-06T10:51:14.733Z,8.30
2022-12-06T10:53:48.999Z,7.45
2022-12-06T10:56:39.358Z,7.60
2022-12-06T10:59:34.743Z,7.75
2022-12-06T11:02:19.477Z,6.82
2022-12-06T11:04:47.423Z,7.07
2022-12-06T11:07:25.530Z,6.65
2022-12-06T11:09:55.625Z,6.25
2022-12-06T11:12:31.644Z,6.30
2022-12-06T11:15:20.200Z,5.70
2022-12-06T11:17:52.419Z,6.10
2022-12-06T11:20:32.918Z,5.68
2022-12-06T11:23:40.834Z,5.75
2022-12-06T11:26:31.013Z,5.82
2022-12-06T11:29:10.040Z,5.47
2022-12-06T11:31:42.806Z,5.88
2022-12-06T11:34:24.029Z,5.18
2022-12-06T11:36:58.178Z,5.18
2022-12-06T11:39:28.490Z,5.35
2022-12-06T11:41:58.581Z,4.95
2022-12-06T11:44:36.357Z,4.95
2022-12-06T11:47:03.665Z,4.55
2022-12-06T11:49:40.333Z,4.75
2022-12-06T11:52:19.400Z,4.55
2022-12-06T11:54:57.815Z,4.88
2022-12-06T11:57:31.911Z,4.82
2022-12-06T12:00:07.909Z,4.68
2022-12-06T12:02:40.152Z,5.60
2022-12-06T12:05:24.184Z,5.40
2022-12-06T12:08:05.574Z,5.07
2022-12-06T12:10:37.896Z,4.82
2022-12-06T12:13:44.185Z,4.97
2022-12-06T12:16:19.624Z,4.63
2022-12-06T12:18:51.507Z,4.57
2022-12-06T12:21:37.012Z,4.28
2022-12-06T12:24:05.751Z,4.22
2022-12-06T12:26:39.436Z,4.43
2022-12-06T12:29:06.262Z,4.68
2022-12-06T12:31:45.184Z,4.93
2022-12-06T12:34:24.583Z,5.03
2022-12-06T12:37:01.357Z,4.75
2022-12-06T12:39:38.250Z,4.40
2022-12-06T12:42:25.279Z,4.03
2022-12-06T12:44:57.876Z,4.43
2022-12-06T12:47:25.561Z,4.55
2022-12-06T12:50:02.813Z,4.85
2022-12-06T12:52:36.048Z,4.75
2022-12-06T12:55:31.195Z,5.53
2022-12-06T12:58:01.242Z,5.45
2022-12-06T13:00:32.507Z,5.50
2022-12-06T13:03:03.901Z,4.93
2022-12-06T13:05:36.237Z,4.80
2022-12-06T13:08:19.329Z,4.82
2022-12-06T13:10:58.467Z,4.55
2022-12-06T13:13:34.140Z,5.07
2022-12-06T13:16:07.243Z,4.50
2022-12-06T13:18:44.698Z,3.88
2022-12-06T13:21:23.451Z,5.00
2022-12-06T13:23:57.780Z,4.75
2022-12-06T13:26:28.926Z,3.80
2022-12-06T13:29:04.970Z,4.30
2022-12-06T13:31:36.886Z,4.50
2022-12-06T13:34:15.902Z,3.38
2022-12-06T13:36:42.936Z,3.90
2022-12-06T13:39:31.697Z,4.32
2022-12-06T13:42:19.109Z,3.97
2022-12-06T13:44:53.217Z,4.22
2022-12-06T13:47:29.301Z,4.22
2022-12-06T13:50:23.180Z,4.43
2022-12-06T13:52:49.985Z,4.43
2022-12-06T13:55:26.460Z,4.30
2022-12-06T13:58:16.393Z,4.47
2022-12-06T14:00:43.199Z,4.00
2022-12-06T14:03:19.244Z,3.97
2022-12-06T14:06:14.272Z,4.07
2022-12-06T14:08:43.766Z,3.78
2022-12-06T14:11:16.255Z,3.65
2022-12-06T14:13:46.368Z,3.53
2022-12-06T14:16:28.083Z,3.78
2022-12-06T14:18:55.235Z,3.75
2022-12-06T14:21:29.450Z,3.78
2022-12-06T14:23:57.134Z,3.70
2022-12-06T14:26:25.414Z,4.55
2022-12-06T14:28:54.245Z,3.50
2022-12-06T14:31:44.361Z,3.55
2022-12-06T14:34:25.732Z,3.60
2022-12-06T14:36:53.188Z,4.18
2022-12-06T14:39:24.457Z,4.00
2022-12-06T14:42:16.070Z,4.13
2022-12-06T14:45:00.497Z,3.67
2022-12-06T14:47:29.706Z,4.13
2022-12-06T14:50:20.412Z,3.80
2022-12-06T14:52:56.615Z,5.00
2022-12-06T14:55:24.576Z,4.20
2022-12-06T14:58:00.299Z,3.95
2022-12-06T15:00:48.439Z,4.95
2022-12-06T15:03:15.228Z,5.20
2022-12-06T15:05:44.209Z,4.95
2022-12-06T15:08:26.619Z,4.85
2022-12-06T15:10:57.765Z,4.80
2022-12-06T15:13:24.780Z,4.22
2022-12-06T15:16:09.779Z,5.28
2022-12-06T15:18:40.765Z,5.47
2022-12-06T15:21:15.506Z,4.97
2022-12-06T15:23:53.109Z,4.90
2022-12-06T15:26:21.432Z,4.20
2022-12-06T15:28:49.077Z,4.32
2022-12-06T15:31:22.724Z,4.15
2022-12-06T15:33:49.819Z,4.38
2022-12-06T15:36:25.788Z,4.57
2022-12-06T15:38:52.995Z,4.57
2022-12-06T15:41:22.650Z,4.63
2022-12-06T15:43:50.872Z,5.10
2022-12-06T15:46:23.751Z,5.63
2022-12-06T15:48:51.732Z,5.43
2022-12-06T15:51:21.806Z,5.55
2022-12-06T15:53:49.989Z,6.10
2022-12-06T15:56:20.271Z,5.95
2022-12-06T15:58:47.737Z,6.00
2022-12-06T16:01:27.409Z,5.57
2022-12-06T16:03:56.324Z,7.05
2022-12-06T16:06:25.836Z,6.43
2022-12-06T16:08:52.953Z,7.68
2022-12-06T16:11:23.947Z,8.95
2022-12-06T16:13:51.548Z,9.38
2022-12-06T16:16:20.375Z,7.90
2022-12-06T16:18:48.076Z,7.57
2022-12-06T16:21:24.505Z,6.25
2022-12-06T16:24:14.733Z,6.90
2022-12-06T16:26:44.372Z,7.90
2022-12-06T16:29:18.717Z,6.90
2022-12-06T16:31:45.697Z,6.20
2022-12-06T16:34:13.752Z,6.82
2022-12-06T16:37:13.508Z,7.72
2022-12-06T16:39:40.354Z,7.45
2022-12-06T16:42:07.132Z,8.32
2022-12-06T16:44:50.776Z,9.52
2022-12-06T16:47:17.732Z,8.27
2022-12-06T16:49:46.202Z,7.75
2022-12-06T16:52:14.523Z,7.97
2022-12-06T16:54:42.133Z,8.23
2022-12-06T16:57:13.001Z,9.80
2022-12-06T16:59:40.586Z,8.77
2022-12-06T17:02:22.114Z,11.82
2022-12-06T17:04:48.938Z,12.90
2022-12-06T17:07:15.772Z,10.77
2022-12-06T17:09:42.996Z,9.43
2022-12-06T17:12:13.175Z,10.15
2022-12-06T17:14:41.148Z,9.70
2022-12-06T17:17:13.765Z,10.48
2022-12-06T17:19:41.993Z,10.38
2022-12-06T17:22:13.224Z,11.70
2022-12-06T17:24:40.082Z,12.27
2022-12-06T17:27:09.104Z,15.45
2022-12-06T17:29:36.327Z,10.50
2022-12-06T17:32:03.183Z,10.60
2022-12-06T17:34:29.955Z,10.55
2022-12-06T17:36:57.988Z,10.02
2022-12-06T17:39:25.417Z,10.93
2022-12-06T17:42:10.844Z,10.20
2022-12-06T17:44:39.836Z,10.00
2022-12-06T17:47:07.199Z,10.57
2022-12-06T17:49:36.111Z,11.05
2022-12-06T17:52:03.052Z,10.90
2022-12-06T17:54:29.855Z,11.05
2022-12-06T17:56:56.795Z,13.35
2022-12-06T17:59:26.269Z,13.57
2022-12-06T18:04:41.372Z,13.65
2022-12-06T18:07:08.356Z,13.90
2022-12-06T18:09:35.312Z,12.52
2022-12-06T18:12:02.637Z,12.02
2022-12-06T18:14:29.703Z,11.07
2022-12-06T18:16:56.809Z,11.02
2022-12-06T18:19:23.982Z,12.18
2022-12-06T18:21:53.011Z,12.68
2022-12-06T18:24:23.178Z,11.38
2022-12-06T18:26:52.310Z,11.35
2022-12-06T18:29:22.660Z,10.95
2022-12-06T18:31:50.307Z,11.93
2022-12-06T18:34:17.600Z,12.63
2022-12-06T18:36:44.501Z,12.18
2022-12-06T18:39:15.874Z,12.23
2022-12-06T18:41:46.281Z,12.50
2022-12-06T18:44:13.663Z,15.48
2022-12-06T18:46:44.370Z,13.05
2022-12-06T18:49:12.264Z,12.27
2022-12-06T18:51:39.598Z,12.13
2022-12-06T18:54:08.064Z,18.33
2022-12-06T18:56:35.871Z,15.23
2022-12-06T18:59:06.184Z,14.15
2022-12-06T19:01:35.692Z,12.07
2022-12-06T19:04:04.793Z,12.73
2022-12-06T19:06:37.924Z,11.30
2022-12-06T19:09:07.891Z,11.65
2022-12-06T19:11:41.279Z,10.23
2022-12-06T19:14:08.820Z,10.40
2022-12-06T19:16:38.567Z,10.00
2022-12-06T19:19:12.783Z,10.15
2022-12-06T19:21:43.883Z,9.77
2022-12-06T19:24:13.007Z,9.18
2022-12-06T19:26:40.938Z,10.77
2022-12-06T19:29:07.799Z,10.48
2022-12-06T19:31:35.362Z,10.75
2022-12-06T19:34:02.353Z,10.45
2022-12-06T19:36:30.681Z,10.52
2022-12-06T19:39:03.108Z,11.13
2022-12-06T19:41:30.751Z,10.75
2022-12-06T19:44:16.292Z,10.52
2022-12-06T19:46:45.428Z,11.00
2022-12-06T19:49:14.220Z,10.02
2022-12-06T19:51:43.283Z,10.38
2022-12-06T19:54:23.147Z,10.63
2022-12-06T19:56:53.286Z,10.52
2022-12-06T19:59:21.898Z,10.00
2022-12-06T20:01:50.124Z,11.40
2022-12-06T20:04:19.353Z,10.85
2022-12-06T20:06:46.842Z,10.52
2022-12-06T20:09:13.995Z,10.00
2022-12-06T20:12:01.265Z,10.15
2022-12-06T20:14:43.997Z,10.20
2022-12-06T20:17:13.993Z,8.57
2022-12-06T20:19:46.286Z,10.45
2022-12-06T20:22:14.301Z,9.93
2022-12-06T20:24:41.233Z,9.75
2022-12-06T20:27:08.286Z,9.95
2022-12-06T20:29:35.104Z,9.40
2022-12-06T20:32:02.413Z,9.60
2022-12-06T20:34:33.788Z,10.68
2022-12-06T20:37:04.145Z,9.50
2022-12-06T20:39:33.057Z,9.18
2022-12-06T20:42:01.028Z,9.55
2022-12-06T20:44:27.999Z,9.13
2022-12-06T20:46:54.925Z,10.50
2022-12-06T20:49:21.917Z,9.45
2022-12-06T20:51:52.986Z,9.70
2022-12-06T20:54:21.155Z,9.68
2022-12-06T20:56:51.494Z,9.63
2022-12-06T20:59:19.280Z,8.63
2022-12-06T21:01:46.257Z,9.68
2022-12-06T21:04:14.415Z,9.98
2022-12-06T21:06:41.513Z,9.35
2022-12-06T21:09:08.547Z,9.55
2022-12-06T21:11:35.446Z,10.77
2022-12-06T21:14:03.662Z,12.20
2022-12-06T21:16:32.010Z,11.45
2022-12-06T21:19:04.880Z,12.35
2022-12-06T21:21:36.824Z,11.07
2022-12-06T21:24:06.047Z,11.15
2022-12-06T21:26:33.489Z,11.50
2022-12-06T21:29:00.398Z,11.55
2022-12-06T21:31:29.071Z,12.70
2022-12-06T21:33:56.781Z,11.88
2022-12-06T21:36:24.368Z,12.93
2022-12-06T21:38:51.797Z,12.60
2022-12-06T21:41:18.980Z,12.32
2022-12-06T21:43:46.172Z,12.15
2022-12-06T21:46:18.983Z,13.15
2022-12-06T21:48:50.715Z,13.02
2022-12-06T21:51:18.114Z,14.10
2022-12-06T21:53:44.882Z,11.57
2022-12-06T21:56:17.926Z,13.07
2022-12-06T21:58:45.314Z,13.10
2022-12-06T22:01:14.692Z,12.57
2022-12-06T22:03:42.103Z,13.32
2022-12-06T22:06:11.315Z,13.18
2022-12-06T22:08:39.501Z,12.93
2022-12-06T22:11:17.556Z,13.65
2022-12-06T22:13:45.641Z,12.65
2022-12-06T22:16:13.350Z,12.65
2022-12-06T22:18:45.455Z,11.95
2022-12-06T22:21:27.391Z,12.02
2022-12-06T22:23:55.844Z,12.38
2022-12-06T22:26:23.484Z,11.95
2022-12-06T22:28:50.908Z,11.15
2022-12-06T22:31:21.160Z,10.77
2022-12-06T22:33:48.779Z,10.88
2022-12-06T22:36:16.383Z,10.05
2022-12-06T22:38:43.561Z,9.40
2022-12-06T22:41:14.098Z,9.63
2022-12-06T22:43:40.961Z,10.32
2022-12-06T22:46:10.964Z,10.10
2022-12-06T22:48:38.932Z,9.90
2022-12-06T22:51:24.967Z,10.32
2022-12-06T22:53:57.256Z,10.95
2022-12-06T22:56:24.944Z,10.98
2022-12-06T22:58:53.542Z,10.95
2022-12-06T23:01:21.985Z,10.73
2022-12-06T23:03:50.865Z,11.18
2022-12-06T23:06:20.892Z,10.35
2022-12-06T23:08:48.196Z,10.20
2022-12-06T23:11:20.788Z,11.63
2022-12-06T23:13:47.852Z,9.90
2022-12-06T23:16:20.535Z,9.73
2022-12-06T23:18:47.604Z,10.32
2022-12-06T23:21:20.040Z,10.98
2022-12-06T23:23:52.401Z,9.20
2022-12-06T23:26:31.782Z,10.70
2022-12-06T23:28:58.715Z,11.23
2022-12-06T23:31:33.227Z,10.98
2022-12-06T23:34:06.660Z,10.43
2022-12-06T23:36:35.020Z,11.80
2022-12-06T23:39:02.833Z,11.65
2022-12-06T23:41:31.115Z,12.50
2022-12-06T23:43:59.447Z,15.98
2022-12-06T23:46:31.607Z,12.73
2022-12-06T23:48:59.291Z,12.45
2022-12-06T23:51:35.152Z,11.10
2022-12-06T23:54:04.333Z,11.43
2022-12-06T23:56:34.018Z,10.90
2022-12-06T23:59:02.174Z,9.90
